createdAt,value
2018-11-25T00:00:36.419Z,2.70
2018-11-25T00:03:06.219Z,2.70
2018-11-25T00:05:36.615Z,2.70
2018-11-25T00:08:06.623Z,2.70
2018-11-25T00:10:35.846Z,2.70
2018-11-25T00:13:05.155Z,2.70
2018-11-25T00:15:36.694Z,2.70
2018-11-25T00:18:06.332Z,2.70
2018-11-25T00:20:35.579Z,2.70
2018-11-25T00:23:06.684Z,2.70
2018-11-25T00:25:35.949Z,2.70
2018-11-25T00:28:05.635Z,2.60
2018-11-25T00:30:42.403Z,2.70
2018-11-25T00:33:11.651Z,2.70
2018-11-25T00:35:40.940Z,2.70
2018-11-25T00:38:10.280Z,2.80
2018-11-25T00:40:39.522Z,2.80
2018-11-25T00:43:08.745Z,2.70
2018-11-25T00:45:38.251Z,2.80
2018-11-25T00:48:07.717Z,2.70
2018-11-25T00:50:37.539Z,2.60
2018-11-25T00:53:10.934Z,2.70
2018-11-25T00:55:40.255Z,2.60
2018-11-25T00:58:10.045Z,2.70
2018-11-25T01:00:39.515Z,2.70
2018-11-25T01:03:08.701Z,2.50
2018-11-25T01:05:37.970Z,2.60
2018-11-25T01:08:08.841Z,2.50
2018-11-25T01:10:38.183Z,2.50
2018-11-25T01:13:07.469Z,2.60
2018-11-25T01:15:37.235Z,2.60
2018-11-25T01:18:06.659Z,2.70
2018-11-25T01:20:36.005Z,2.60
2018-11-25T01:23:05.754Z,2.70
2018-11-25T01:25:34.976Z,2.80
2018-11-25T01:28:04.437Z,2.80
2018-11-25T01:30:34.042Z,2.80
2018-11-25T01:33:03.551Z,2.70
2018-11-25T01:35:32.946Z,2.80
2018-11-25T01:38:02.900Z,2.80
2018-11-25T01:40:32.242Z,2.80
2018-11-25T01:43:02.722Z,2.80
2018-11-25T01:45:32.129Z,2.80
2018-11-25T01:48:01.320Z,2.70
2018-11-25T01:50:30.572Z,2.70
2018-11-25T01:53:00.233Z,2.70
2018-11-25T01:55:29.502Z,2.70
2018-11-25T01:58:03.192Z,2.70
2018-11-25T02:00:32.436Z,2.70
2018-11-25T02:03:04.354Z,2.70
2018-11-25T02:05:33.538Z,2.80
2018-11-25T02:08:02.897Z,2.70
2018-11-25T02:10:32.436Z,2.80
2018-11-25T02:13:01.732Z,2.70
2018-11-25T02:15:32.376Z,2.80
2018-11-25T02:18:02.021Z,2.80
2018-11-25T02:20:31.216Z,2.70
2018-11-25T02:23:06.690Z,2.60
2018-11-25T02:25:35.942Z,2.70
2018-11-25T02:28:09.019Z,2.60
2018-11-25T02:30:38.285Z,2.60
2018-11-25T02:33:07.766Z,2.70
2018-11-25T02:35:37.232Z,2.70
2018-11-25T02:38:06.614Z,2.70
2018-11-25T02:40:36.010Z,2.70
2018-11-25T02:43:05.742Z,2.60
2018-11-25T02:45:35.082Z,2.60
2018-11-25T02:48:04.435Z,2.60
2018-11-25T02:50:34.294Z,2.60
2018-11-25T02:53:06.165Z,2.70
2018-11-25T02:55:35.884Z,2.70
2018-11-25T02:58:08.032Z,2.70
2018-11-25T03:00:37.660Z,2.70
2018-11-25T03:03:06.896Z,2.70
2018-11-25T03:05:36.442Z,2.70
2018-11-25T03:08:06.118Z,2.60
2018-11-25T03:10:35.559Z,2.60
2018-11-25T03:13:04.978Z,2.60
2018-11-25T03:15:34.434Z,2.70
2018-11-25T03:18:03.652Z,2.70
2018-11-25T03:20:32.996Z,2.60
2018-11-25T03:23:02.331Z,2.60
2018-11-25T03:25:31.538Z,2.70
2018-11-25T03:28:01.102Z,2.70
2018-11-25T03:30:30.600Z,2.70
2018-11-25T03:32:59.879Z,2.60
2018-11-25T03:35:29.541Z,2.80
2018-11-25T03:37:59.058Z,2.80
2018-11-25T03:40:28.256Z,2.70
2018-11-25T03:42:57.515Z,2.60
2018-11-25T03:45:26.943Z,2.70
2018-11-25T03:47:57.502Z,2.70
2018-11-25T03:50:26.758Z,2.60
2018-11-25T03:52:56.199Z,2.70
2018-11-25T03:55:25.454Z,2.70
2018-11-25T03:57:56.847Z,2.70
2018-11-25T04:00:26.291Z,2.60
2018-11-25T04:02:55.619Z,2.60
2018-11-25T04:05:24.941Z,2.70
2018-11-25T04:07:54.844Z,2.60
2018-11-25T04:10:24.037Z,2.60
2018-11-25T04:12:53.404Z,2.70
2018-11-25T04:15:23.048Z,2.70
2018-11-25T04:17:52.352Z,2.70
2018-11-25T04:20:21.796Z,2.70
2018-11-25T04:22:51.383Z,2.60
2018-11-25T04:25:20.704Z,2.60
2018-11-25T04:27:50.000Z,2.60
2018-11-25T04:30:19.970Z,2.60
2018-11-25T04:32:51.123Z,2.60
2018-11-25T04:35:20.491Z,2.60
2018-11-25T04:37:49.813Z,2.60
2018-11-25T04:40:19.554Z,2.70
2018-11-25T04:42:48.932Z,2.70
2018-11-25T04:45:22.506Z,2.70
2018-11-25T04:47:51.913Z,2.60
2018-11-25T04:50:21.846Z,2.70
2018-11-25T04:52:52.185Z,2.80
2018-11-25T04:55:28.606Z,2.60
2018-11-25T04:57:58.108Z,2.70
2018-11-25T05:00:27.594Z,2.70
2018-11-25T05:02:57.068Z,2.70
2018-11-25T05:05:26.684Z,2.60
2018-11-25T05:07:57.336Z,2.60
2018-11-25T05:10:26.608Z,2.50
2018-11-25T05:13:00.278Z,2.40
2018-11-25T05:15:29.804Z,2.50
2018-11-25T05:17:59.100Z,2.40
2018-11-25T05:20:28.954Z,2.50
2018-11-25T05:22:58.332Z,2.50
2018-11-25T05:25:27.537Z,2.30
2018-11-25T05:27:56.980Z,2.30
2018-11-25T05:30:29.920Z,2.30
2018-11-25T05:32:59.400Z,2.40
2018-11-25T05:35:39.748Z,2.50
2018-11-25T05:38:09.264Z,2.40
2018-11-25T05:40:38.696Z,2.40
2018-11-25T05:43:07.956Z,2.40
2018-11-25T05:45:37.325Z,2.40
2018-11-25T05:48:06.747Z,2.40
2018-11-25T05:50:36.098Z,2.40
2018-11-25T05:53:05.890Z,2.40
2018-11-25T05:55:35.166Z,2.40
2018-11-25T05:58:04.778Z,2.40
2018-11-25T06:00:34.560Z,2.40
2018-11-25T06:03:03.968Z,2.50
2018-11-25T06:05:33.200Z,2.40
2018-11-25T06:08:02.596Z,2.40
2018-11-25T06:10:31.840Z,2.40
2018-11-25T06:13:01.094Z,2.50
2018-11-25T06:15:30.490Z,2.50
2018-11-25T06:17:59.720Z,2.50
2018-11-25T06:20:29.137Z,2.40
2018-11-25T06:22:58.557Z,2.40
2018-11-25T06:25:27.785Z,2.50
2018-11-25T06:27:57.212Z,2.50
2018-11-25T06:30:26.551Z,2.50
2018-11-25T06:32:55.730Z,2.50
2018-11-25T06:35:25.290Z,2.40
2018-11-25T06:37:55.134Z,2.40
2018-11-25T06:40:24.666Z,2.40
2018-11-25T06:42:54.560Z,2.40
2018-11-25T06:45:27.285Z,2.40
2018-11-25T06:47:57.859Z,2.50
2018-11-25T06:50:27.694Z,2.50
2018-11-25T06:52:57.592Z,2.50
2018-11-25T06:55:27.551Z,2.50
2018-11-25T06:57:57.290Z,2.60
2018-11-25T07:00:27.248Z,2.60
2018-11-25T07:02:56.408Z,2.70
2018-11-25T07:05:27.172Z,2.80
2018-11-25T07:07:56.628Z,2.80
2018-11-25T07:10:26.022Z,2.70
2018-11-25T07:12:55.648Z,2.80
2018-11-25T07:15:25.607Z,2.80
2018-11-25T07:17:54.735Z,2.80
2018-11-25T07:20:26.172Z,2.70
2018-11-25T07:22:55.355Z,2.70
2018-11-25T07:25:24.665Z,2.80
2018-11-25T07:27:54.076Z,2.80
2018-11-25T07:30:25.488Z,2.80
2018-11-25T07:32:54.767Z,2.90
2018-11-25T07:35:27.280Z,2.90
2018-11-25T07:37:56.569Z,2.90
2018-11-25T07:40:26.343Z,2.80
2018-11-25T07:42:55.659Z,2.80
2018-11-25T07:45:30.595Z,2.80
2018-11-25T07:47:54.898Z,2.80
2018-11-25T07:50:24.194Z,2.80
2018-11-25T07:52:53.384Z,3.10
2018-11-25T07:55:24.095Z,3.00
2018-11-25T07:57:54.966Z,2.90
2018-11-25T08:00:24.917Z,2.90
2018-11-25T08:02:54.096Z,2.90
2018-11-25T08:05:27.768Z,2.80
2018-11-25T08:07:56.875Z,2.70
2018-11-25T08:10:26.048Z,2.80
2018-11-25T08:12:56.528Z,2.90
2018-11-25T08:15:24.676Z,2.90
2018-11-25T08:17:53.976Z,2.90
2018-11-25T08:20:23.551Z,2.90
2018-11-25T08:22:52.850Z,2.90
2018-11-25T08:25:22.724Z,2.90
2018-11-25T08:27:52.224Z,2.90
2018-11-25T08:30:22.544Z,2.90
2018-11-25T08:32:59.451Z,2.90
2018-11-25T08:35:28.545Z,2.90
2018-11-25T08:37:57.656Z,3.00
2018-11-25T08:40:27.006Z,2.90
2018-11-25T08:42:56.157Z,3.00
2018-11-25T08:45:25.422Z,2.90
2018-11-25T08:47:55.743Z,2.90
2018-11-25T08:50:24.840Z,3.00
2018-11-25T08:52:58.407Z,3.10
2018-11-25T08:55:27.514Z,3.10
2018-11-25T08:57:58.470Z,3.20
2018-11-25T09:00:27.786Z,3.30
2018-11-25T09:02:57.442Z,3.10
2018-11-25T09:05:26.645Z,3.10
2018-11-25T09:07:56.074Z,3.10
2018-11-25T09:10:28.996Z,3.10
2018-11-25T09:12:58.652Z,3.20
2018-11-25T09:15:32.328Z,3.10
2018-11-25T09:18:01.646Z,3.20
2018-11-25T09:20:30.781Z,3.20
2018-11-25T09:23:00.136Z,3.20
2018-11-25T09:25:32.413Z,3.30
2018-11-25T09:28:02.675Z,3.20
2018-11-25T09:30:32.854Z,3.20
2018-11-25T09:33:01.962Z,3.30
2018-11-25T09:35:31.536Z,3.20
2018-11-25T09:38:00.864Z,3.20
2018-11-25T09:40:30.012Z,3.30
2018-11-25T09:42:59.360Z,3.40
2018-11-25T09:45:28.689Z,3.50
2018-11-25T09:47:57.977Z,3.60
2018-11-25T09:50:27.088Z,3.70
2018-11-25T09:52:56.729Z,3.70
2018-11-25T09:55:25.968Z,3.70
2018-11-25T09:57:58.843Z,3.70
2018-11-25T10:00:30.343Z,3.80
2018-11-25T10:02:59.537Z,3.80
2018-11-25T10:05:28.847Z,3.90
2018-11-25T10:07:57.996Z,4.00
2018-11-25T10:10:27.214Z,4.00
2018-11-25T10:12:57.164Z,4.00
2018-11-25T10:15:29.530Z,4.00
2018-11-25T10:17:59.775Z,4.00
2018-11-25T10:20:31.326Z,4.10
2018-11-25T10:23:01.078Z,4.20
2018-11-25T10:25:30.216Z,4.10
2018-11-25T10:27:59.438Z,4.10
2018-11-25T10:30:30.525Z,4.20
2018-11-25T10:33:01.134Z,4.20
2018-11-25T10:35:32.542Z,4.20
2018-11-25T10:38:01.938Z,4.20
2018-11-25T10:40:31.256Z,4.20
2018-11-25T10:43:00.581Z,4.10
2018-11-25T10:45:29.754Z,4.10
2018-11-25T10:47:59.322Z,4.10
2018-11-25T10:50:28.566Z,4.10
2018-11-25T10:52:57.822Z,4.10
2018-11-25T10:55:27.008Z,4.10
2018-11-25T10:57:56.815Z,4.10
2018-11-25T11:00:35.430Z,4.20
2018-11-25T11:03:11.182Z,4.20
2018-11-25T11:05:45.422Z,4.10
2018-11-25T11:08:15.392Z,4.10
2018-11-25T11:10:44.764Z,4.20
2018-11-25T11:13:13.948Z,4.20
2018-11-25T11:15:43.286Z,4.20
2018-11-25T11:18:12.455Z,4.20
2018-11-25T11:20:41.964Z,4.00
2018-11-25T11:23:11.284Z,3.90
2018-11-25T11:25:40.592Z,3.90
2018-11-25T11:28:09.769Z,4.00
2018-11-25T11:30:39.232Z,4.00
2018-11-25T11:33:08.468Z,4.00
2018-11-25T11:35:37.712Z,4.00
2018-11-25T11:38:07.226Z,4.00
2018-11-25T11:40:36.390Z,3.90
2018-11-25T11:43:05.770Z,4.00
2018-11-25T11:45:37.310Z,3.90
2018-11-25T11:48:06.671Z,4.00
2018-11-25T11:50:36.008Z,3.90
2018-11-25T11:53:06.612Z,3.80
2018-11-25T11:55:39.584Z,3.70
2018-11-25T11:58:09.094Z,3.50
2018-11-25T12:00:38.337Z,3.50
2018-11-25T12:03:07.842Z,3.70
2018-11-25T12:05:37.224Z,3.80
2018-11-25T12:08:10.277Z,3.80
2018-11-25T12:10:39.528Z,3.80
2018-11-25T12:13:08.626Z,3.80
2018-11-25T12:15:37.924Z,3.70
2018-11-25T12:18:08.096Z,3.80
2018-11-25T12:20:37.392Z,3.80
2018-11-25T12:23:08.148Z,3.90
2018-11-25T12:25:37.444Z,3.90
2018-11-25T12:28:07.408Z,3.90
2018-11-25T12:30:36.653Z,3.90
2018-11-25T12:33:06.266Z,4.00
2018-11-25T12:35:35.423Z,4.10
2018-11-25T12:38:04.660Z,4.30
2018-11-25T12:40:33.972Z,4.30
2018-11-25T12:43:03.324Z,4.40
2018-11-25T12:45:32.704Z,4.30
2018-11-25T12:48:02.287Z,4.20
2018-11-25T12:50:31.731Z,4.30
2018-11-25T12:53:01.656Z,4.20
2018-11-25T12:55:31.098Z,4.20
2018-11-25T12:58:00.736Z,3.80
2018-11-25T13:00:39.973Z,3.90
2018-11-25T13:03:10.666Z,4.00
2018-11-25T13:05:45.960Z,3.80
2018-11-25T13:08:10.867Z,3.80
2018-11-25T13:10:40.414Z,4.00
2018-11-25T13:13:14.220Z,3.90
2018-11-25T13:15:44.272Z,4.00
2018-11-25T13:18:14.515Z,4.20
2018-11-25T13:20:44.370Z,4.20
2018-11-25T13:23:21.938Z,4.30
2018-11-25T13:25:51.135Z,4.40
2018-11-25T13:28:20.528Z,4.40
2018-11-25T13:30:49.854Z,4.30
2018-11-25T13:33:19.152Z,4.20
2018-11-25T13:35:48.268Z,4.20
2018-11-25T13:38:21.556Z,4.20
2018-11-25T13:40:50.940Z,4.00
2018-11-25T13:43:20.060Z,4.00
2018-11-25T13:45:49.746Z,4.00
2018-11-25T13:48:18.904Z,4.20
2018-11-25T13:50:48.114Z,4.40
2018-11-25T13:53:18.018Z,4.30
2018-11-25T13:55:47.127Z,4.30
2018-11-25T13:58:16.398Z,4.30
2018-11-25T14:00:51.605Z,4.40
2018-11-25T14:03:25.024Z,4.40
2018-11-25T14:05:54.285Z,4.40
2018-11-25T14:08:23.702Z,4.40
2018-11-25T14:11:04.148Z,4.40
2018-11-25T14:13:33.283Z,4.40
2018-11-25T14:16:02.403Z,4.40
2018-11-25T14:18:31.667Z,4.40
2018-11-25T14:21:00.987Z,4.50
2018-11-25T14:23:30.122Z,4.50
2018-11-25T14:26:08.144Z,4.50
2018-11-25T14:28:37.312Z,4.50
2018-11-25T14:31:07.664Z,4.50
2018-11-25T14:33:37.388Z,4.50
2018-11-25T14:36:07.450Z,4.50
2018-11-25T14:38:37.022Z,4.40
2018-11-25T14:41:06.332Z,4.30
2018-11-25T14:43:35.430Z,4.40
2018-11-25T14:46:04.698Z,4.30
2018-11-25T14:48:33.963Z,4.40
2018-11-25T14:51:03.113Z,4.30
2018-11-25T14:53:35.885Z,4.30
2018-11-25T14:56:05.145Z,4.30
2018-11-25T14:58:34.678Z,4.30
2018-11-25T15:01:07.654Z,4.20
2018-11-25T15:03:36.756Z,4.20
2018-11-25T15:06:08.276Z,4.20
2018-11-25T15:08:37.406Z,4.20
2018-11-25T15:11:06.548Z,4.20
2018-11-25T15:13:36.111Z,4.20
2018-11-25T15:16:08.262Z,4.00
2018-11-25T15:18:37.651Z,3.90
2018-11-25T15:21:07.983Z,3.90
2018-11-25T15:23:41.335Z,4.00
2018-11-25T15:26:16.034Z,4.00
2018-11-25T15:28:45.365Z,3.90
2018-11-25T15:31:18.191Z,3.80
2018-11-25T15:33:47.464Z,3.90
2018-11-25T15:36:16.602Z,3.90
2018-11-25T15:38:49.998Z,3.80
2018-11-25T15:41:19.102Z,3.70
2018-11-25T15:43:48.332Z,3.60
2018-11-25T15:46:18.284Z,3.60
2018-11-25T15:48:47.412Z,3.60
2018-11-25T15:51:16.702Z,3.60
2018-11-25T15:53:46.408Z,3.60
2018-11-25T15:56:15.523Z,3.60
2018-11-25T15:58:44.606Z,3.70
2018-11-25T16:01:13.882Z,3.70
2018-11-25T16:03:43.051Z,3.60
2018-11-25T16:08:57.889Z,3.50
2018-11-25T16:11:28.465Z,3.40
2018-11-25T16:13:57.919Z,3.40
2018-11-25T16:16:27.052Z,3.30
2018-11-25T16:19:00.215Z,3.30
2018-11-25T16:21:29.321Z,3.30
2018-11-25T16:23:59.568Z,3.50
2018-11-25T16:26:34.380Z,3.50
2018-11-25T16:29:13.430Z,3.30
2018-11-25T16:31:43.425Z,3.40
2018-11-25T16:34:12.566Z,3.30
2018-11-25T16:36:41.831Z,3.30
2018-11-25T16:39:11.563Z,3.40
2018-11-25T16:41:40.648Z,3.20
2018-11-25T16:44:09.822Z,3.30
2018-11-25T16:46:40.456Z,3.40
2018-11-25T16:49:09.572Z,3.40
2018-11-25T16:51:38.712Z,3.50
2018-11-25T16:54:18.407Z,3.40
2018-11-25T16:56:47.551Z,3.50
2018-11-25T16:59:16.700Z,3.50
2018-11-25T17:01:45.982Z,3.60
2018-11-25T17:04:15.092Z,3.50
2018-11-25T17:06:47.820Z,3.50
2018-11-25T17:09:16.927Z,3.60
2018-11-25T17:11:50.816Z,3.60
2018-11-25T17:14:20.044Z,3.50
2018-11-25T17:16:49.201Z,3.60
2018-11-25T17:19:19.760Z,3.70
2018-11-25T17:21:48.890Z,3.80
2018-11-25T17:24:18.124Z,3.70
2018-11-25T17:26:47.409Z,3.80
2018-11-25T17:29:26.787Z,3.80
2018-11-25T17:31:56.185Z,3.90
2018-11-25T17:34:40.826Z,3.90
2018-11-25T17:37:11.039Z,3.80
2018-11-25T17:39:56.288Z,3.70
2018-11-25T17:42:25.654Z,3.70
2018-11-25T17:45:01.587Z,3.60
2018-11-25T17:47:31.078Z,3.60
2018-11-25T17:50:18.930Z,3.50
2018-11-25T17:52:48.633Z,3.50
2018-11-25T17:58:11.631Z,3.50
2018-11-25T18:01:00.730Z,3.40
2018-11-25T18:03:33.504Z,3.40
2018-11-25T18:06:02.852Z,3.50
2018-11-25T18:08:32.087Z,3.50
2018-11-25T18:11:01.865Z,3.40
2018-11-25T18:13:33.545Z,3.50
2018-11-25T18:16:04.575Z,3.50
2018-11-25T18:18:43.475Z,3.40
2018-11-25T18:21:20.791Z,3.40
2018-11-25T18:23:50.087Z,3.40
2018-11-25T18:26:19.374Z,3.40
2018-11-25T18:28:48.876Z,3.40
2018-11-25T18:31:18.184Z,3.50
2018-11-25T18:33:47.584Z,3.50
2018-11-25T18:36:16.988Z,3.50
2018-11-25T18:38:46.267Z,3.50
2018-11-25T18:41:15.496Z,3.50
2018-11-25T18:43:45.212Z,3.50
2018-11-25T18:46:14.848Z,3.60
2018-11-25T18:48:49.393Z,3.60
2018-11-25T18:51:19.079Z,3.60
2018-11-25T18:53:48.583Z,3.60
2018-11-25T18:56:18.326Z,3.70
2018-11-25T18:58:47.749Z,3.80
2018-11-25T19:02:25.156Z,3.70
2018-11-25T19:04:54.875Z,3.80
2018-11-25T19:07:24.433Z,3.60
2018-11-25T19:09:54.144Z,3.60
2018-11-25T19:12:23.814Z,3.60
2018-11-25T19:14:53.810Z,3.60
2018-11-25T19:17:23.518Z,3.60
2018-11-25T19:19:53.520Z,3.60
2018-11-25T19:22:23.244Z,3.60
2018-11-25T19:24:52.956Z,3.60
2018-11-25T19:27:27.408Z,3.60
2018-11-25T19:29:57.242Z,3.60
2018-11-25T19:32:26.886Z,3.60
2018-11-25T19:34:56.640Z,3.50
2018-11-25T19:37:26.407Z,3.50
2018-11-25T19:40:00.182Z,3.50
2018-11-25T19:42:30.232Z,3.50
2018-11-25T19:45:12.021Z,3.50
2018-11-25T19:47:41.749Z,3.50
2018-11-25T19:50:47.492Z,3.50
2018-11-25T19:53:16.907Z,3.60
2018-11-25T19:55:46.251Z,3.50
2018-11-25T19:58:15.573Z,3.60
2018-11-25T20:00:45.009Z,3.50
2018-11-25T20:03:14.302Z,3.50
2018-11-25T20:05:43.651Z,3.50
2018-11-25T20:08:13.144Z,3.50
2018-11-25T20:10:42.466Z,3.50
2018-11-25T20:13:11.980Z,3.60
2018-11-25T20:15:41.447Z,3.60
2018-11-25T20:18:10.782Z,3.50
2018-11-25T20:20:40.335Z,3.50
2018-11-25T20:26:03.505Z,3.60
2018-11-25T20:28:32.935Z,3.70
2018-11-25T20:31:02.317Z,3.60
2018-11-25T20:33:37.303Z,3.60
2018-11-25T20:36:06.905Z,3.60
2018-11-25T20:38:45.272Z,3.70
2018-11-25T20:41:15.669Z,3.60
2018-11-25T20:43:44.078Z,3.60
2018-11-25T20:47:19.596Z,3.60
2018-11-25T20:49:50.108Z,3.70
2018-11-25T20:52:24.828Z,3.70
2018-11-25T20:54:54.417Z,3.70
2018-11-25T20:57:23.959Z,3.80
2018-11-25T20:59:53.235Z,3.80
2018-11-25T21:02:28.961Z,3.80
2018-11-25T21:04:52.009Z,3.70
2018-11-25T21:07:21.391Z,3.70
2018-11-25T21:09:50.872Z,3.70
2018-11-25T21:12:20.122Z,3.70
2018-11-25T21:14:50.697Z,3.80
2018-11-25T21:17:21.377Z,3.80
2018-11-25T21:19:50.633Z,3.80
2018-11-25T21:22:19.964Z,3.80
2018-11-25T21:24:49.360Z,3.90
2018-11-25T21:27:18.741Z,3.80
2018-11-25T21:29:48.065Z,3.90
2018-11-25T21:32:17.671Z,3.80
2018-11-25T21:34:47.971Z,3.80
2018-11-25T21:37:17.330Z,3.90
2018-11-25T21:39:46.962Z,3.90
2018-11-25T21:42:16.226Z,3.90
2018-11-25T21:44:45.721Z,3.90
2018-11-25T21:47:15.212Z,3.80
2018-11-25T21:49:44.632Z,3.90
2018-11-25T21:52:15.553Z,3.80
2018-11-25T21:54:46.125Z,3.80
2018-11-25T21:57:15.679Z,3.70
2018-11-25T21:59:44.922Z,3.80
2018-11-25T22:02:15.049Z,3.80
2018-11-25T22:04:44.309Z,3.70
2018-11-25T22:07:13.602Z,3.70
2018-11-25T22:09:43.466Z,3.80
2018-11-25T22:12:13.984Z,3.70
2018-11-25T22:14:43.256Z,3.70
2018-11-25T22:17:13.339Z,3.60
2018-11-25T22:19:43.293Z,3.60
2018-11-25T22:22:14.852Z,3.70
2018-11-25T22:24:44.259Z,3.70
2018-11-25T22:27:13.530Z,3.60
2018-11-25T22:29:43.045Z,3.60
2018-11-25T22:32:12.444Z,3.60
2018-11-25T22:34:41.799Z,3.70
2018-11-25T22:37:11.215Z,3.60
2018-11-25T22:39:41.697Z,3.60
2018-11-25T22:42:10.942Z,3.60
2018-11-25T22:44:40.357Z,3.60
2018-11-25T22:47:09.715Z,3.60
2018-11-25T22:49:39.091Z,3.60
2018-11-25T22:52:09.043Z,3.50
2018-11-25T22:54:38.409Z,3.50
2018-11-25T22:57:07.609Z,3.50
2018-11-25T22:59:37.047Z,3.50
2018-11-25T23:02:06.381Z,3.50
2018-11-25T23:04:46.935Z,3.40
2018-11-25T23:07:16.215Z,3.50
2018-11-25T23:09:49.144Z,3.40
2018-11-25T23:12:18.387Z,3.40
2018-11-25T23:14:47.606Z,3.40
2018-11-25T23:17:17.013Z,3.40
2018-11-25T23:19:46.599Z,3.50
2018-11-25T23:22:15.957Z,3.50
2018-11-25T23:24:51.859Z,3.40
2018-11-25T23:27:21.088Z,3.40
2018-11-25T23:29:50.340Z,3.50
2018-11-25T23:32:19.727Z,3.50
2018-11-25T23:34:51.038Z,3.50
2018-11-25T23:37:20.697Z,3.50
2018-11-25T23:39:55.661Z,3.50
2018-11-25T23:42:25.022Z,3.50
2018-11-25T23:44:54.553Z,3.60
2018-11-25T23:47:23.852Z,3.60
2018-11-25T23:49:53.429Z,3.60
2018-11-25T23:52:22.742Z,3.60
2018-11-25T23:54:52.016Z,3.60
2018-11-25T23:57:21.567Z,3.50
2018-11-25T23:59:50.778Z,3.50
